sensor_id;sensor_type;location;lat;lon;timestamp;P1;durP1;ratioP1;P2;durP2;ratioP2
68074;SDS011;54864;52.002;5.468;2023-04-01T00:00:38;13.80;;;7.80;;
68074;SDS011;54864;52.002;5.468;2023-04-01T00:01:39;11.85;;;8.48;;
68074;SDS011;54864;52.002;5.468;2023-04-01T00:02:41;12.70;;;9.05;;
68074;SDS011;54864;52.002;5.468;2023-04-01T00:03:42;12.20;;;8.82;;
68074;SDS011;54864;52.002;5.468;2023-04-01T00:04:44;15.15;;;9.82;;
68074;SDS011;54864;52.002;5.468;2023-04-01T00:05:45;15.65;;;9.35;;
68074;SDS011;54864;52.002;5.468;2023-04-01T00:06:47;12.85;;;9.40;;
68074;SDS011;54864;52.002;5.468;2023-04-01T00:07:48;14.40;;;9.00;;
68074;SDS011;54864;52.002;5.468;2023-04-01T00:08:51;13.00;;;9.02;;
68074;SDS011;54864;52.002;5.468;2023-04-01T00:09:53;18.63;;;9.43;;
68074;SDS011;54864;52.002;5.468;2023-04-01T00:10:53;16.42;;;10.30;;
68074;SDS011;54864;52.002;5.468;2023-04-01T00:11:56;15.27;;;9.60;;
68074;SDS011;54864;52.002;5.468;2023-04-01T00:12:57;16.67;;;9.83;;
68074;SDS011;54864;52.002;5.468;2023-04-01T00:13:59;14.13;;;9.88;;
68074;SDS011;54864;52.002;5.468;2023-04-01T00:15:00;15.95;;;10.18;;
68074;SDS011;54864;52.002;5.468;2023-04-01T00:16:02;15.18;;;9.63;;
68074;SDS011;54864;52.002;5.468;2023-04-01T00:17:04;15.48;;;10.15;;
68074;SDS011;54864;52.002;5.468;2023-04-01T00:18:05;15.55;;;10.45;;
68074;SDS011;54864;52.002;5.468;2023-04-01T00:19:06;19.33;;;11.23;;
68074;SDS011;54864;52.002;5.468;2023-04-01T00:20:08;17.65;;;10.85;;
68074;SDS011;54864;52.002;5.468;2023-04-01T00:21:10;20.10;;;10.63;;
68074;SDS011;54864;52.002;5.468;2023-04-01T00:22:11;20.33;;;11.15;;
68074;SDS011;54864;52.002;5.468;2023-04-01T00:23:12;19.00;;;11.10;;
68074;SDS011;54864;52.002;5.468;2023-04-01T00:24:16;19.67;;;11.10;;
68074;SDS011;54864;52.002;5.468;2023-04-01T00:25:17;22.30;;;11.38;;
68074;SDS011;54864;52.002;5.468;2023-04-01T00:26:18;15.55;;;11.10;;
68074;SDS011;54864;52.002;5.468;2023-04-01T00:27:21;21.30;;;11.38;;
68074;SDS011;54864;52.002;5.468;2023-04-01T00:28:22;20.30;;;13.07;;
68074;SDS011;54864;52.002;5.468;2023-04-01T00:29:23;20.02;;;11.38;;
68074;SDS011;54864;52.002;5.468;2023-04-01T00:30:24;21.52;;;12.27;;
68074;SDS011;54864;52.002;5.468;2023-04-01T00:31:26;21.98;;;12.65;;
68074;SDS011;54864;52.002;5.468;2023-04-01T00:32:27;23.60;;;13.20;;
68074;SDS011;54864;52.002;5.468;2023-04-01T00:33:29;25.25;;;12.68;;
68074;SDS011;54864;52.002;5.468;2023-04-01T00:34:30;23.60;;;13.00;;
68074;SDS011;54864;52.002;5.468;2023-04-01T00:35:32;28.23;;;13.93;;
68074;SDS011;54864;52.002;5.468;2023-04-01T00:36:32;27.02;;;13.38;;
68074;SDS011;54864;52.002;5.468;2023-04-01T00:37:37;27.52;;;13.55;;
68074;SDS011;54864;52.002;5.468;2023-04-01T00:38:39;35.72;;;15.05;;
68074;SDS011;54864;52.002;5.468;2023-04-01T00:39:43;31.58;;;14.73;;
68074;SDS011;54864;52.002;5.468;2023-04-01T00:40:45;33.13;;;14.52;;
68074;SDS011;54864;52.002;5.468;2023-04-01T00:41:47;30.10;;;14.60;;
68074;SDS011;54864;52.002;5.468;2023-04-01T00:42:48;31.00;;;15.05;;
68074;SDS011;54864;52.002;5.468;2023-04-01T00:43:50;30.77;;;14.63;;
68074;SDS011;54864;52.002;5.468;2023-04-01T00:44:52;29.75;;;14.40;;
68074;SDS011;54864;52.002;5.468;2023-04-01T00:45:55;34.08;;;14.18;;
68074;SDS011;54864;52.002;5.468;2023-04-01T00:46:56;35.33;;;13.93;;
68074;SDS011;54864;52.002;5.468;2023-04-01T00:47:59;32.50;;;12.77;;
68074;SDS011;54864;52.002;5.468;2023-04-01T00:49:04;31.30;;;13.73;;
68074;SDS011;54864;52.002;5.468;2023-04-01T00:50:06;32.05;;;13.30;;
68074;SDS011;54864;52.002;5.468;2023-04-01T00:51:09;35.30;;;13.13;;
68074;SDS011;54864;52.002;5.468;2023-04-01T00:52:14;33.70;;;13.40;;
68074;SDS011;54864;52.002;5.468;2023-04-01T00:53:17;32.38;;;14.63;;
68074;SDS011;54864;52.002;5.468;2023-04-01T00:54:21;27.25;;;13.05;;
68074;SDS011;54864;52.002;5.468;2023-04-01T00:55:25;36.85;;;15.05;;
68074;SDS011;54864;52.002;5.468;2023-04-01T00:56:30;28.83;;;14.43;;
68074;SDS011;54864;52.002;5.468;2023-04-01T00:57:34;27.80;;;12.98;;
68074;SDS011;54864;52.002;5.468;2023-04-01T00:58:38;26.83;;;13.77;;
68074;SDS011;54864;52.002;5.468;2023-04-01T00:59:42;30.90;;;13.20;;
68074;SDS011;54864;52.002;5.468;2023-04-01T01:00:45;24.67;;;13.20;;
68074;SDS011;54864;52.002;5.468;2023-04-01T01:01:48;27.02;;;12.73;;
68074;SDS011;54864;52.002;5.468;2023-04-01T01:02:50;35.58;;;14.07;;
68074;SDS011;54864;52.002;5.468;2023-04-01T01:03:51;36.78;;;13.10;;
68074;SDS011;54864;52.002;5.468;2023-04-01T01:04:53;28.20;;;13.43;;
68074;SDS011;54864;52.002;5.468;2023-04-01T01:07:15;29.67;;;13.32;;
68074;SDS011;54864;52.002;5.468;2023-04-01T01:08:23;27.92;;;13.30;;
68074;SDS011;54864;52.002;5.468;2023-04-01T01:09:32;27.27;;;13.57;;
68074;SDS011;54864;52.002;5.468;2023-04-01T01:10:42;24.95;;;13.15;;
68074;SDS011;54864;52.002;5.468;2023-04-01T01:11:50;27.23;;;13.60;;
68074;SDS011;54864;52.002;5.468;2023-04-01T01:12:58;28.65;;;13.88;;
68074;SDS011;54864;52.002;5.468;2023-04-01T01:14:12;33.60;;;15.05;;
68074;SDS011;54864;52.002;5.468;2023-04-01T01:15:25;35.03;;;14.65;;
68074;SDS011;54864;52.002;5.468;2023-04-01T01:16:32;34.28;;;13.68;;
68074;SDS011;54864;52.002;5.468;2023-04-01T01:17:48;27.92;;;14.05;;
68074;SDS011;54864;52.002;5.468;2023-04-01T01:18:58;32.05;;;14.25;;
68074;SDS011;54864;52.002;5.468;2023-04-01T01:20:14;29.50;;;14.15;;
68074;SDS011;54864;52.002;5.468;2023-04-01T01:21:49;32.55;;;15.15;;
68074;SDS011;54864;52.002;5.468;2023-04-01T01:23:07;29.02;;;13.75;;
68074;SDS011;54864;52.002;5.468;2023-04-01T01:24:31;30.27;;;14.45;;
68074;SDS011;54864;52.002;5.468;2023-04-01T01:25:47;33.10;;;14.45;;
68074;SDS011;54864;52.002;5.468;2023-04-01T01:27:00;30.70;;;14.63;;
68074;SDS011;54864;52.002;5.468;2023-04-01T01:28:11;31.30;;;14.93;;
68074;SDS011;54864;52.002;5.468;2023-04-01T01:29:41;27.50;;;14.13;;
68074;SDS011;54864;52.002;5.468;2023-04-01T01:30:51;31.40;;;15.43;;
68074;SDS011;54864;52.002;5.468;2023-04-01T01:32:02;36.40;;;16.38;;
68074;SDS011;54864;52.002;5.468;2023-04-01T01:33:25;30.33;;;16.45;;
68074;SDS011;54864;52.002;5.468;2023-04-01T01:34:40;36.80;;;17.38;;
68074;SDS011;54864;52.002;5.468;2023-04-01T01:35:49;37.83;;;17.02;;
68074;SDS011;54864;52.002;5.468;2023-04-01T01:36:55;39.83;;;16.55;;
68074;SDS011;54864;52.002;5.468;2023-04-01T01:37:59;42.15;;;18.20;;
68074;SDS011;54864;52.002;5.468;2023-04-01T01:39:04;41.33;;;17.75;;
68074;SDS011;54864;52.002;5.468;2023-04-01T01:40:08;39.47;;;18.08;;
68074;SDS011;54864;52.002;5.468;2023-04-01T01:41:13;39.70;;;18.92;;
68074;SDS011;54864;52.002;5.468;2023-04-01T01:42:18;47.03;;;19.33;;
68074;SDS011;54864;52.002;5.468;2023-04-01T01:43:21;42.10;;;20.70;;
68074;SDS011;54864;52.002;5.468;2023-04-01T01:44:24;45.13;;;19.65;;
68074;SDS011;54864;52.002;5.468;2023-04-01T01:45:27;43.33;;;19.92;;
68074;SDS011;54864;52.002;5.468;2023-04-01T01:46:31;44.63;;;19.50;;
68074;SDS011;54864;52.002;5.468;2023-04-01T01:47:33;46.30;;;20.20;;
68074;SDS011;54864;52.002;5.468;2023-04-01T01:48:36;49.25;;;20.27;;
68074;SDS011;54864;52.002;5.468;2023-04-01T01:49:39;44.83;;;20.42;;
68074;SDS011;54864;52.002;5.468;2023-04-01T01:50:43;41.00;;;19.38;;
68074;SDS011;54864;52.002;5.468;2023-04-01T01:51:47;50.20;;;20.23;;
68074;SDS011;54864;52.002;5.468;2023-04-01T01:52:49;45.15;;;18.88;;
68074;SDS011;54864;52.002;5.468;2023-04-01T01:53:50;42.57;;;19.30;;
68074;SDS011;54864;52.002;5.468;2023-04-01T01:54:52;46.38;;;20.35;;
68074;SDS011;54864;52.002;5.468;2023-04-01T01:55:53;41.85;;;19.45;;
68074;SDS011;54864;52.002;5.468;2023-04-01T01:56:55;47.80;;;20.00;;
68074;SDS011;54864;52.002;5.468;2023-04-01T01:58:05;40.33;;;20.65;;
68074;SDS011;54864;52.002;5.468;2023-04-01T01:59:11;48.67;;;20.48;;
68074;SDS011;54864;52.002;5.468;2023-04-01T02:00:16;44.88;;;19.30;;
68074;SDS011;54864;52.002;5.468;2023-04-01T02:01:19;46.40;;;20.17;;
68074;SDS011;54864;52.002;5.468;2023-04-01T02:02:25;37.85;;;17.77;;
68074;SDS011;54864;52.002;5.468;2023-04-01T02:03:27;43.42;;;19.38;;
68074;SDS011;54864;52.002;5.468;2023-04-01T02:04:34;41.35;;;18.42;;
68074;SDS011;54864;52.002;5.468;2023-04-01T02:05:36;42.40;;;18.73;;
68074;SDS011;54864;52.002;5.468;2023-04-01T02:06:38;36.90;;;16.63;;
68074;SDS011;54864;52.002;5.468;2023-04-01T02:07:44;41.45;;;17.45;;
68074;SDS011;54864;52.002;5.468;2023-04-01T02:08:50;41.88;;;16.10;;
68074;SDS011;54864;52.002;5.468;2023-04-01T02:09:53;40.90;;;16.35;;
68074;SDS011;54864;52.002;5.468;2023-04-01T02:10:56;35.08;;;15.45;;
68074;SDS011;54864;52.002;5.468;2023-04-01T02:12:00;44.20;;;16.60;;
68074;SDS011;54864;52.002;5.468;2023-04-01T02:13:07;33.83;;;15.30;;
68074;SDS011;54864;52.002;5.468;2023-04-01T02:14:13;40.70;;;15.98;;
68074;SDS011;54864;52.002;5.468;2023-04-01T02:15:17;38.78;;;16.27;;
68074;SDS011;54864;52.002;5.468;2023-04-01T02:16:21;36.88;;;14.48;;
68074;SDS011;54864;52.002;5.468;2023-04-01T02:17:29;36.08;;;14.27;;
68074;SDS011;54864;52.002;5.468;2023-04-01T02:18:31;39.13;;;14.60;;
68074;SDS011;54864;52.002;5.468;2023-04-01T02:19:37;30.65;;;12.80;;
68074;SDS011;54864;52.002;5.468;2023-04-01T02:20:40;29.15;;;12.82;;
68074;SDS011;54864;52.002;5.468;2023-04-01T02:21:44;29.40;;;12.55;;
68074;SDS011;54864;52.002;5.468;2023-04-01T02:22:48;31.42;;;12.75;;
68074;SDS011;54864;52.002;5.468;2023-04-01T02:23:52;31.42;;;12.80;;
68074;SDS011;54864;52.002;5.468;2023-04-01T02:24:57;31.65;;;12.27;;
68074;SDS011;54864;52.002;5.468;2023-04-01T02:26:03;24.45;;;11.50;;
68074;SDS011;54864;52.002;5.468;2023-04-01T02:27:06;25.23;;;12.10;;
68074;SDS011;54864;52.002;5.468;2023-04-01T02:28:11;26.17;;;11.38;;
68074;SDS011;54864;52.002;5.468;2023-04-01T02:29:13;25.23;;;10.75;;
68074;SDS011;54864;52.002;5.468;2023-04-01T02:30:16;23.67;;;10.60;;
68074;SDS011;54864;52.002;5.468;2023-04-01T02:31:17;21.80;;;10.90;;
68074;SDS011;54864;52.002;5.468;2023-04-01T02:32:19;22.30;;;10.68;;
68074;SDS011;54864;52.002;5.468;2023-04-01T02:33:21;23.73;;;11.40;;
68074;SDS011;54864;52.002;5.468;2023-04-01T02:34:23;25.67;;;11.60;;
68074;SDS011;54864;52.002;5.468;2023-04-01T02:35:25;20.75;;;10.45;;
68074;SDS011;54864;52.002;5.468;2023-04-01T02:36:27;20.23;;;11.05;;
68074;SDS011;54864;52.002;5.468;2023-04-01T02:37:27;20.92;;;10.77;;
68074;SDS011;54864;52.002;5.468;2023-04-01T02:38:31;23.30;;;12.70;;
68074;SDS011;54864;52.002;5.468;2023-04-01T02:39:31;19.27;;;11.10;;
68074;SDS011;54864;52.002;5.468;2023-04-01T02:40:47;18.00;;;10.75;;
68074;SDS011;54864;52.002;5.468;2023-04-01T02:41:49;21.85;;;11.23;;
68074;SDS011;54864;52.002;5.468;2023-04-01T02:42:51;22.73;;;12.02;;
68074;SDS011;54864;52.002;5.468;2023-04-01T02:43:52;23.67;;;11.85;;
68074;SDS011;54864;52.002;5.468;2023-04-01T02:44:53;21.00;;;9.82;;
68074;SDS011;54864;52.002;5.468;2023-04-01T02:45:54;23.20;;;11.40;;
68074;SDS011;54864;52.002;5.468;2023-04-01T02:46:55;19.75;;;10.57;;
68074;SDS011;54864;52.002;5.468;2023-04-01T02:47:56;19.35;;;10.68;;
68074;SDS011;54864;52.002;5.468;2023-04-01T02:48:58;20.13;;;10.90;;
68074;SDS011;54864;52.002;5.468;2023-04-01T02:49:58;20.33;;;10.07;;
68074;SDS011;54864;52.002;5.468;2023-04-01T02:51:00;21.85;;;10.35;;
68074;SDS011;54864;52.002;5.468;2023-04-01T02:52:01;17.17;;;10.23;;
68074;SDS011;54864;52.002;5.468;2023-04-01T02:53:03;18.70;;;10.60;;
68074;SDS011;54864;52.002;5.468;2023-04-01T02:54:07;20.00;;;10.65;;
68074;SDS011;54864;52.002;5.468;2023-04-01T02:55:09;20.17;;;10.43;;
68074;SDS011;54864;52.002;5.468;2023-04-01T02:56:10;20.05;;;11.70;;
68074;SDS011;54864;52.002;5.468;2023-04-01T02:57:11;20.77;;;10.18;;
68074;SDS011;54864;52.002;5.468;2023-04-01T02:58:12;18.42;;;10.32;;
68074;SDS011;54864;52.002;5.468;2023-04-01T02:59:14;19.77;;;11.20;;
68074;SDS011;54864;52.002;5.468;2023-04-01T03:00:15;19.03;;;10.77;;
68074;SDS011;54864;52.002;5.468;2023-04-01T03:01:17;16.83;;;10.68;;
68074;SDS011;54864;52.002;5.468;2023-04-01T03:02:18;18.33;;;10.38;;
68074;SDS011;54864;52.002;5.468;2023-04-01T03:03:20;20.02;;;10.60;;
68074;SDS011;54864;52.002;5.468;2023-04-01T03:04:20;17.87;;;10.73;;
68074;SDS011;54864;52.002;5.468;2023-04-01T03:05:22;18.23;;;10.23;;
68074;SDS011;54864;52.002;5.468;2023-04-01T03:06:23;20.00;;;11.25;;
68074;SDS011;54864;52.002;5.468;2023-04-01T03:07:25;23.45;;;11.68;;
68074;SDS011;54864;52.002;5.468;2023-04-01T03:08:26;18.52;;;10.80;;
68074;SDS011;54864;52.002;5.468;2023-04-01T03:09:29;20.27;;;11.70;;
68074;SDS011;54864;52.002;5.468;2023-04-01T03:10:30;17.88;;;11.20;;
68074;SDS011;54864;52.002;5.468;2023-04-01T03:11:31;20.37;;;11.00;;
68074;SDS011;54864;52.002;5.468;2023-04-01T03:12:32;18.53;;;10.73;;
68074;SDS011;54864;52.002;5.468;2023-04-01T03:13:34;19.13;;;11.05;;
68074;SDS011;54864;52.002;5.468;2023-04-01T03:14:34;19.23;;;11.37;;
68074;SDS011;54864;52.002;5.468;2023-04-01T03:15:36;22.55;;;10.95;;
68074;SDS011;54864;52.002;5.468;2023-04-01T03:16:37;18.75;;;11.60;;
68074;SDS011;54864;52.002;5.468;2023-04-01T03:17:38;22.63;;;11.98;;
68074;SDS011;54864;52.002;5.468;2023-04-01T03:18:41;19.58;;;10.88;;
68074;SDS011;54864;52.002;5.468;2023-04-01T03:19:41;19.65;;;11.55;;
68074;SDS011;54864;52.002;5.468;2023-04-01T03:20:43;17.50;;;10.73;;
68074;SDS011;54864;52.002;5.468;2023-04-01T03:21:44;15.18;;;10.95;;
68074;SDS011;54864;52.002;5.468;2023-04-01T03:22:45;15.90;;;11.07;;
68074;SDS011;54864;52.002;5.468;2023-04-01T03:23:46;15.65;;;11.38;;
68074;SDS011;54864;52.002;5.468;2023-04-01T03:24:49;16.88;;;11.30;;
68074;SDS011;54864;52.002;5.468;2023-04-01T03:25:50;15.23;;;10.70;;
68074;SDS011;54864;52.002;5.468;2023-04-01T03:26:52;17.92;;;10.40;;
68074;SDS011;54864;52.002;5.468;2023-04-01T03:27:52;18.73;;;11.10;;
68074;SDS011;54864;52.002;5.468;2023-04-01T03:28:54;18.60;;;11.37;;
68074;SDS011;54864;52.002;5.468;2023-04-01T03:29:55;17.65;;;11.35;;
68074;SDS011;54864;52.002;5.468;2023-04-01T03:30:57;15.93;;;10.48;;
68074;SDS011;54864;52.002;5.468;2023-04-01T03:31:57;16.70;;;11.13;;
68074;SDS011;54864;52.002;5.468;2023-04-01T03:32:59;15.93;;;11.45;;
68074;SDS011;54864;52.002;5.468;2023-04-01T03:34:00;16.38;;;12.18;;
68074;SDS011;54864;52.002;5.468;2023-04-01T03:35:02;17.33;;;11.35;;
68074;SDS011;54864;52.002;5.468;2023-04-01T03:36:03;19.88;;;11.25;;
68074;SDS011;54864;52.002;5.468;2023-04-01T03:37:06;15.97;;;10.33;;
68074;SDS011;54864;52.002;5.468;2023-04-01T03:38:07;15.15;;;10.25;;
68074;SDS011;54864;52.002;5.468;2023-04-01T03:39:08;14.40;;;9.95;;
68074;SDS011;54864;52.002;5.468;2023-04-01T03:40:11;14.85;;;9.98;;
68074;SDS011;54864;52.002;5.468;2023-04-01T03:41:12;14.18;;;10.00;;
68074;SDS011;54864;52.002;5.468;2023-04-01T03:42:14;15.88;;;10.10;;
68074;SDS011;54864;52.002;5.468;2023-04-01T03:43:15;14.70;;;9.75;;
68074;SDS011;54864;52.002;5.468;2023-04-01T03:44:17;14.90;;;10.77;;
68074;SDS011;54864;52.002;5.468;2023-04-01T03:45:18;15.43;;;10.68;;
68074;SDS011;54864;52.002;5.468;2023-04-01T03:46:20;16.38;;;11.15;;
68074;SDS011;54864;52.002;5.468;2023-04-01T03:47:21;16.25;;;10.18;;
68074;SDS011;54864;52.002;5.468;2023-04-01T03:48:22;13.95;;;10.77;;
68074;SDS011;54864;52.002;5.468;2023-04-01T03:49:23;13.57;;;10.13;;
68074;SDS011;54864;52.002;5.468;2023-04-01T03:50:25;13.93;;;10.70;;
68074;SDS011;54864;52.002;5.468;2023-04-01T03:51:26;15.82;;;11.32;;
68074;SDS011;54864;52.002;5.468;2023-04-01T03:52:28;14.02;;;10.60;;
68074;SDS011;54864;52.002;5.468;2023-04-01T03:53:29;15.52;;;11.27;;
68074;SDS011;54864;52.002;5.468;2023-04-01T03:54:30;16.07;;;10.93;;
68074;SDS011;54864;52.002;5.468;2023-04-01T03:55:33;16.27;;;11.48;;
68074;SDS011;54864;52.002;5.468;2023-04-01T03:56:37;14.15;;;10.73;;
68074;SDS011;54864;52.002;5.468;2023-04-01T03:57:38;14.73;;;10.98;;
68074;SDS011;54864;52.002;5.468;2023-04-01T03:58:39;15.93;;;11.27;;
68074;SDS011;54864;52.002;5.468;2023-04-01T03:59:40;17.92;;;11.50;;
68074;SDS011;54864;52.002;5.468;2023-04-01T04:00:41;15.70;;;11.02;;
68074;SDS011;54864;52.002;5.468;2023-04-01T04:01:42;15.13;;;11.03;;
68074;SDS011;54864;52.002;5.468;2023-04-01T04:02:44;17.95;;;11.85;;
68074;SDS011;54864;52.002;5.468;2023-04-01T04:03:44;17.25;;;11.35;;
68074;SDS011;54864;52.002;5.468;2023-04-01T04:04:47;17.17;;;11.88;;
68074;SDS011;54864;52.002;5.468;2023-04-01T04:05:47;17.10;;;11.30;;
68074;SDS011;54864;52.002;5.468;2023-04-01T04:06:50;16.45;;;11.02;;
68074;SDS011;54864;52.002;5.468;2023-04-01T04:07:51;16.30;;;11.13;;
68074;SDS011;54864;52.002;5.468;2023-04-01T04:08:53;15.23;;;11.50;;
68074;SDS011;54864;52.002;5.468;2023-04-01T04:09:54;16.63;;;11.77;;
68074;SDS011;54864;52.002;5.468;2023-04-01T04:10:57;17.67;;;11.13;;
68074;SDS011;54864;52.002;5.468;2023-04-01T04:11:57;13.90;;;10.43;;
68074;SDS011;54864;52.002;5.468;2023-04-01T04:13:00;15.80;;;11.90;;
68074;SDS011;54864;52.002;5.468;2023-04-01T04:14:00;17.25;;;11.15;;
68074;SDS011;54864;52.002;5.468;2023-04-01T04:15:03;16.38;;;11.65;;
68074;SDS011;54864;52.002;5.468;2023-04-01T04:16:04;14.40;;;10.57;;
68074;SDS011;54864;52.002;5.468;2023-04-01T04:17:06;16.88;;;10.90;;
68074;SDS011;54864;52.002;5.468;2023-04-01T04:18:08;16.05;;;10.60;;
68074;SDS011;54864;52.002;5.468;2023-04-01T04:19:09;15.82;;;10.45;;
68074;SDS011;54864;52.002;5.468;2023-04-01T04:20:10;13.50;;;10.43;;
68074;SDS011;54864;52.002;5.468;2023-04-01T04:21:12;14.10;;;10.45;;
68074;SDS011;54864;52.002;5.468;2023-04-01T04:22:14;16.65;;;11.82;;
68074;SDS011;54864;52.002;5.468;2023-04-01T04:23:15;14.57;;;10.55;;
68074;SDS011;54864;52.002;5.468;2023-04-01T04:24:17;13.85;;;10.23;;
68074;SDS011;54864;52.002;5.468;2023-04-01T04:25:18;15.27;;;10.00;;
68074;SDS011;54864;52.002;5.468;2023-04-01T04:26:21;15.10;;;11.15;;
68074;SDS011;54864;52.002;5.468;2023-04-01T04:27:21;16.33;;;9.93;;
68074;SDS011;54864;52.002;5.468;2023-04-01T04:28:23;12.85;;;8.93;;
68074;SDS011;54864;52.002;5.468;2023-04-01T04:29:24;16.33;;;10.07;;
68074;SDS011;54864;52.002;5.468;2023-04-01T04:30:26;12.30;;;9.23;;
68074;SDS011;54864;52.002;5.468;2023-04-01T04:31:27;11.80;;;9.00;;
68074;SDS011;54864;52.002;5.468;2023-04-01T04:32:29;13.70;;;9.73;;
68074;SDS011;54864;52.002;5.468;2023-04-01T04:33:30;13.73;;;9.27;;
68074;SDS011;54864;52.002;5.468;2023-04-01T04:34:32;14.05;;;9.30;;
68074;SDS011;54864;52.002;5.468;2023-04-01T04:35:33;12.75;;;8.73;;
68074;SDS011;54864;52.002;5.468;2023-04-01T04:36:34;13.00;;;9.48;;
68074;SDS011;54864;52.002;5.468;2023-04-01T04:37:35;13.63;;;9.35;;
68074;SDS011;54864;52.002;5.468;2023-04-01T04:38:37;13.10;;;9.05;;
68074;SDS011;54864;52.002;5.468;2023-04-01T04:39:37;12.00;;;8.83;;
68074;SDS011;54864;52.002;5.468;2023-04-01T04:40:39;15.30;;;9.88;;
68074;SDS011;54864;52.002;5.468;2023-04-01T04:41:42;16.13;;;10.00;;
68074;SDS011;54864;52.002;5.468;2023-04-01T04:42:44;13.15;;;10.07;;
68074;SDS011;54864;52.002;5.468;2023-04-01T04:43:48;13.52;;;10.20;;
68074;SDS011;54864;52.002;5.468;2023-04-01T04:44:51;14.15;;;9.95;;
68074;SDS011;54864;52.002;5.468;2023-04-01T04:45:51;15.43;;;10.20;;
68074;SDS011;54864;52.002;5.468;2023-04-01T04:46:53;13.43;;;10.48;;
68074;SDS011;54864;52.002;5.468;2023-04-01T04:47:54;14.73;;;10.50;;
68074;SDS011;54864;52.002;5.468;2023-04-01T04:48:55;14.15;;;11.13;;
68074;SDS011;54864;52.002;5.468;2023-04-01T04:49:56;25.67;;;11.93;;
68074;SDS011;54864;52.002;5.468;2023-04-01T04:50:58;17.08;;;11.52;;
68074;SDS011;54864;52.002;5.468;2023-04-01T04:51:58;14.20;;;10.47;;
68074;SDS011;54864;52.002;5.468;2023-04-01T04:53:00;15.68;;;11.00;;
68074;SDS011;54864;52.002;5.468;2023-04-01T04:54:01;14.25;;;11.13;;
68074;SDS011;54864;52.002;5.468;2023-04-01T04:55:02;16.67;;;10.67;;
68074;SDS011;54864;52.002;5.468;2023-04-01T04:56:04;15.65;;;11.20;;
68074;SDS011;54864;52.002;5.468;2023-04-01T04:57:07;16.45;;;10.40;;
68074;SDS011;54864;52.002;5.468;2023-04-01T04:58:08;15.25;;;10.50;;
68074;SDS011;54864;52.002;5.468;2023-04-01T04:59:09;15.70;;;11.05;;
68074;SDS011;54864;52.002;5.468;2023-04-01T05:00:12;17.92;;;11.15;;
68074;SDS011;54864;52.002;5.468;2023-04-01T05:01:15;16.90;;;10.70;;
68074;SDS011;54864;52.002;5.468;2023-04-01T05:02:16;12.57;;;9.77;;
68074;SDS011;54864;52.002;5.468;2023-04-01T05:03:18;14.63;;;10.25;;
68074;SDS011;54864;52.002;5.468;2023-04-01T05:04:18;15.27;;;10.38;;
68074;SDS011;54864;52.002;5.468;2023-04-01T05:05:20;13.27;;;9.80;;
68074;SDS011;54864;52.002;5.468;2023-04-01T05:06:21;12.82;;;9.90;;
68074;SDS011;54864;52.002;5.468;2023-04-01T05:07:22;13.90;;;8.85;;
68074;SDS011;54864;52.002;5.468;2023-04-01T05:08:23;11.73;;;8.80;;
68074;SDS011;54864;52.002;5.468;2023-04-01T05:09:25;13.35;;;9.45;;
68074;SDS011;54864;52.002;5.468;2023-04-01T05:10:25;12.13;;;9.10;;
68074;SDS011;54864;52.002;5.468;2023-04-01T05:11:27;11.50;;;8.85;;
68074;SDS011;54864;52.002;5.468;2023-04-01T05:12:29;12.00;;;8.85;;
68074;SDS011;54864;52.002;5.468;2023-04-01T05:13:32;11.60;;;8.30;;
68074;SDS011;54864;52.002;5.468;2023-04-01T05:14:34;11.02;;;8.20;;
68074;SDS011;54864;52.002;5.468;2023-04-01T05:15:35;12.67;;;7.83;;
68074;SDS011;54864;52.002;5.468;2023-04-01T05:16:37;11.67;;;7.80;;
68074;SDS011;54864;52.002;5.468;2023-04-01T05:17:38;11.30;;;7.20;;
68074;SDS011;54864;52.002;5.468;2023-04-01T05:18:39;8.70;;;6.43;;
68074;SDS011;54864;52.002;5.468;2023-04-01T05:19:40;10.18;;;7.07;;
68074;SDS011;54864;52.002;5.468;2023-04-01T05:20:45;8.35;;;6.40;;
68074;SDS011;54864;52.002;5.468;2023-04-01T05:21:47;7.82;;;5.65;;
68074;SDS011;54864;52.002;5.468;2023-04-01T05:22:49;8.75;;;5.70;;
68074;SDS011;54864;52.002;5.468;2023-04-01T05:23:50;9.30;;;5.67;;
68074;SDS011;54864;52.002;5.468;2023-04-01T05:24:51;6.88;;;4.93;;
68074;SDS011;54864;52.002;5.468;2023-04-01T05:25:52;8.88;;;5.63;;
68074;SDS011;54864;52.002;5.468;2023-04-01T05:26:54;7.35;;;4.93;;
68074;SDS011;54864;52.002;5.468;2023-04-01T05:27:57;6.30;;;4.88;;
68074;SDS011;54864;52.002;5.468;2023-04-01T05:28:59;6.93;;;4.23;;
68074;SDS011;54864;52.002;5.468;2023-04-01T05:29:59;8.07;;;4.20;;
68074;SDS011;54864;52.002;5.468;2023-04-01T05:31:02;6.20;;;4.63;;
68074;SDS011;54864;52.002;5.468;2023-04-01T05:32:03;7.43;;;4.53;;
68074;SDS011;54864;52.002;5.468;2023-04-01T05:33:05;5.93;;;4.40;;
68074;SDS011;54864;52.002;5.468;2023-04-01T05:34:06;5.97;;;4.80;;
68074;SDS011;54864;52.002;5.468;2023-04-01T05:35:08;6.97;;;3.90;;
68074;SDS011;54864;52.002;5.468;2023-04-01T05:36:09;7.43;;;4.43;;
68074;SDS011;54864;52.002;5.468;2023-04-01T05:37:13;6.00;;;3.88;;
68074;SDS011;54864;52.002;5.468;2023-04-01T05:38:14;6.57;;;4.50;;
68074;SDS011;54864;52.002;5.468;2023-04-01T05:39:15;5.43;;;4.30;;
68074;SDS011;54864;52.002;5.468;2023-04-01T05:40:16;8.57;;;4.93;;
68074;SDS011;54864;52.002;5.468;2023-04-01T05:41:18;7.38;;;4.78;;
68074;SDS011;54864;52.002;5.468;2023-04-01T05:42:18;6.27;;;4.67;;
68074;SDS011;54864;52.002;5.468;2023-04-01T05:43:21;7.82;;;4.80;;
68074;SDS011;54864;52.002;5.468;2023-04-01T05:44:22;6.65;;;4.70;;
68074;SDS011;54864;52.002;5.468;2023-04-01T05:45:24;8.13;;;5.25;;
68074;SDS011;54864;52.002;5.468;2023-04-01T05:46:24;8.30;;;5.40;;
68074;SDS011;54864;52.002;5.468;2023-04-01T05:47:26;9.32;;;6.10;;
68074;SDS011;54864;52.002;5.468;2023-04-01T05:48:27;13.20;;;6.07;;
68074;SDS011;54864;52.002;5.468;2023-04-01T05:49:28;10.23;;;5.85;;
68074;SDS011;54864;52.002;5.468;2023-04-01T05:50:29;8.10;;;5.93;;
68074;SDS011;54864;52.002;5.468;2023-04-01T05:51:31;9.50;;;6.18;;
68074;SDS011;54864;52.002;5.468;2023-04-01T05:52:31;8.87;;;6.60;;
68074;SDS011;54864;52.002;5.468;2023-04-01T05:53:33;9.30;;;6.68;;
68074;SDS011;54864;52.002;5.468;2023-04-01T05:54:33;9.93;;;6.47;;
68074;SDS011;54864;52.002;5.468;2023-04-01T05:55:35;9.18;;;6.60;;
68074;SDS011;54864;52.002;5.468;2023-04-01T05:56:36;9.27;;;6.95;;
68074;SDS011;54864;52.002;5.468;2023-04-01T05:57:38;10.20;;;6.57;;
68074;SDS011;54864;52.002;5.468;2023-04-01T05:58:40;9.07;;;6.65;;
68074;SDS011;54864;52.002;5.468;2023-04-01T05:59:41;9.05;;;6.30;;
68074;SDS011;54864;52.002;5.468;2023-04-01T06:00:42;9.80;;;6.57;;
68074;SDS011;54864;52.002;5.468;2023-04-01T06:01:44;9.93;;;6.78;;
68074;SDS011;54864;52.002;5.468;2023-04-01T06:02:45;10.65;;;6.75;;
68074;SDS011;54864;52.002;5.468;2023-04-01T06:03:47;9.88;;;7.28;;
68074;SDS011;54864;52.002;5.468;2023-04-01T06:04:48;9.15;;;6.60;;
68074;SDS011;54864;52.002;5.468;2023-04-01T06:05:50;8.55;;;6.63;;
68074;SDS011;54864;52.002;5.468;2023-04-01T06:06:51;8.23;;;6.97;;
68074;SDS011;54864;52.002;5.468;2023-04-01T06:07:54;9.50;;;6.75;;
68074;SDS011;54864;52.002;5.468;2023-04-01T06:09:00;11.63;;;7.43;;
68074;SDS011;54864;52.002;5.468;2023-04-01T06:10:12;10.23;;;6.57;;
68074;SDS011;54864;52.002;5.468;2023-04-01T06:11:17;9.30;;;6.53;;